Time,TemperatureF,DewpointF,PressureIn,WindDirection,WindDirectionDegrees,WindSpeedMPH,WindSpeedGustMPH,Humidity,HourlyPrecipIn,Conditions,Clouds,dailyrainin,SoftwareType,DateUTC
2013-01-18 00:00:00,18.4,7.6,30.27,NNW,342,7.0,15.0,62,0.00,,---,0.00,VWS V13.01,2013-01-18 05:00:00,
2013-01-18 00:30:00,18.0,7.5,30.28,North,349,2.0,12.0,63,0.00,,---,0.00,VWS V13.01,2013-01-18 05:30:00,
2013-01-18 01:00:00,17.6,8.2,30.30,NW,323,5.0,10.0,66,0.00,,---,0.00,VWS V13.01,2013-01-18 06:00:00,
2013-01-18 01:30:00,17.1,8.4,30.32,NW,304,0.0,7.0,68,0.00,,---,0.00,VWS V13.01,2013-01-18 06:30:00,
2013-01-18 02:00:00,16.6,8.5,30.33,NW,309,1.0,4.0,70,0.00,,---,0.00,VWS V13.01,2013-01-18 07:00:00,
2013-01-18 02:30:00,16.4,8.7,30.35,NW,315,0.0,4.0,71,0.00,,---,0.00,VWS V13.01,2013-01-18 07:30:00,
2013-01-18 03:00:00,15.5,8.1,30.36,NW,315,0.0,2.0,72,0.00,,---,0.00,VWS V13.01,2013-01-18 08:00:00,
2013-01-18 03:30:00,15.5,8.7,30.37,NW,315,0.0,0.0,74,0.00,,---,0.00,VWS V13.01,2013-01-18 08:30:00,
2013-01-18 04:00:00,15.0,8.8,30.38,NW,315,0.0,2.0,76,0.00,,---,0.00,VWS V13.01,2013-01-18 09:00:00,
2013-01-18 04:30:00,15.0,9.4,30.38,NW,315,0.0,2.0,78,0.00,,---,0.00,VWS V13.01,2013-01-18 09:30:00,
2013-01-18 05:00:00,15.0,9.7,30.37,NW,315,0.0,0.0,79,0.00,,---,0.00,VWS V13.01,2013-01-18 10:00:00,
2013-01-18 05:30:00,15.7,10.6,30.38,NW,315,0.0,2.0,80,0.00,,---,0.00,VWS V13.01,2013-01-18 10:30:00,
2013-01-18 06:00:00,15.8,10.7,30.39,NW,315,1.0,3.0,80,0.00,,---,0.00,VWS V13.01,2013-01-18 11:00:00,
2013-01-18 07:00:00,16.1,11.3,30.40,NW,315,1.0,2.0,81,0.00,,---,0.00,VWS V13.01,2013-01-18 12:00:00,
2013-01-18 07:30:00,15.8,11.0,30.41,WNW,294,0.0,3.0,81,0.00,,---,0.00,VWS V13.01,2013-01-18 12:30:00,
2013-01-18 08:00:00,15.4,10.9,30.40,WNW,294,0.0,2.0,82,0.00,,---,0.00,VWS V13.01,2013-01-18 13:00:00,
2013-01-18 08:30:00,16.1,11.9,30.41,WNW,294,0.0,2.0,83,0.00,,---,0.00,VWS V13.01,2013-01-18 13:30:00,
2013-01-18 09:00:00,18.2,13.4,30.40,SW,215,1.0,5.0,81,0.00,,---,0.00,VWS V13.01,2013-01-18 14:00:00,
2013-01-18 09:30:00,19.3,13.9,30.41,SW,234,2.0,7.0,79,0.00,,---,0.00,VWS V13.01,2013-01-18 14:30:00,
2013-01-18 10:00:00,20.5,14.1,30.40,WSW,250,2.0,9.0,76,0.00,,---,0.00,VWS V13.01,2013-01-18 15:00:00,
2013-01-18 10:30:00,21.6,13.7,30.40,SSW,202,1.0,10.0,71,0.00,,---,0.00,VWS V13.01,2013-01-18 15:30:00,
2013-01-18 11:00:00,23.0,14.0,30.39,South,178,3.0,12.0,68,0.00,,---,0.00,VWS V13.01,2013-01-18 16:00:00,
2013-01-18 11:30:00,24.3,14.9,30.36,SSW,206,11.0,15.0,67,0.00,,---,0.00,VWS V13.01,2013-01-18 16:30:00,
2013-01-18 12:00:00,25.0,15.6,30.34,SSW,208,10.0,18.0,67,0.00,,---,0.00,VWS V13.01,2013-01-18 17:00:00,
2013-01-18 12:30:00,26.7,17.2,30.31,SW,232,6.0,19.0,67,0.00,,---,0.00,VWS V13.01,2013-01-18 17:30:00,
2013-01-18 13:00:00,27.1,17.6,30.28,West,259,12.0,18.0,67,0.00,,---,0.00,VWS V13.01,2013-01-18 18:00:00,
2013-01-18 13:30:00,27.2,18.7,30.25,SSW,202,9.0,24.0,70,0.00,,---,0.00,VWS V13.01,2013-01-18 18:30:00,
2013-01-18 14:00:00,28.1,20.2,30.21,SSW,196,5.0,22.0,72,0.00,,---,0.00,VWS V13.01,2013-01-18 19:00:00,
2013-01-18 14:30:00,30.3,20.7,30.18,South,190,4.0,21.0,67,0.00,,---,0.00,VWS V13.01,2013-01-18 19:30:00,
2013-01-18 15:00:00,31.7,19.0,30.16,SSW,207,9.0,23.0,59,0.00,,---,0.00,VWS V13.01,2013-01-18 20:00:00,
2013-01-18 15:30:00,33.2,18.8,30.13,SW,229,3.0,27.0,55,0.00,,---,0.00,VWS V13.01,2013-01-18 20:30:00,
2013-01-18 16:00:00,32.5,19.0,30.11,WSW,250,10.0,26.0,57,0.00,,---,0.00,VWS V13.01,2013-01-18 21:00:00,
2013-01-18 16:30:00,33.3,19.3,30.09,SSW,207,18.0,26.0,56,0.00,,---,0.00,VWS V13.01,2013-01-18 21:30:00,
2013-01-18 17:00:00,33.4,19.8,30.07,WSW,240,11.0,28.0,57,0.00,,---,0.00,VWS V13.01,2013-01-18 22:00:00,
2013-01-18 17:30:00,33.1,21.1,30.07,SW,229,19.0,26.0,61,0.00,,---,0.00,VWS V13.01,2013-01-18 22:30:00,
2013-01-18 18:00:00,33.2,22.0,30.06,SW,214,12.0,25.0,63,0.00,,---,0.00,VWS V13.01,2013-01-18 23:00:00,
2013-01-18 18:30:00,33.6,22.7,30.04,South,178,15.0,27.0,64,0.00,,---,0.00,VWS V13.01,2013-01-18 23:30:00,
2013-01-18 19:00:00,34.1,23.2,30.02,SSW,192,7.0,25.0,64,0.00,,---,0.00,VWS V13.01,2013-01-19 00:00:00,
2013-01-18 19:30:00,34.5,23.2,30.01,SW,236,21.0,30.0,63,0.00,,---,0.00,VWS V13.01,2013-01-19 00:30:00,
2013-01-18 20:00:00,35.3,22.4,29.99,SSW,200,13.0,28.0,59,0.00,,---,0.00,VWS V13.01,2013-01-19 01:00:00,
2013-01-18 20:30:00,36.2,22.0,29.98,SSW,199,8.0,35.0,56,0.00,,---,0.00,VWS V13.01,2013-01-19 01:30:00,
2013-01-18 21:00:00,36.8,22.6,29.98,SSW,202,17.0,30.0,56,0.00,,---,0.00,VWS V13.01,2013-01-19 02:00:00,
2013-01-18 21:30:00,36.6,23.2,29.98,West,263,5.0,32.0,58,0.00,,---,0.00,VWS V13.01,2013-01-19 02:30:00,
2013-01-18 22:00:00,36.4,23.9,29.97,SW,234,14.0,31.0,60,0.00,,---,0.00,VWS V13.01,2013-01-19 03:00:00,
2013-01-18 22:30:00,36.1,24.4,29.95,SW,217,18.0,28.0,62,0.00,,---,0.00,VWS V13.01,2013-01-19 03:30:00,
2013-01-18 23:00:00,35.9,24.5,29.94,SW,232,11.0,25.0,63,0.00,,---,0.00,VWS V13.01,2013-01-19 04:00:00,
2013-01-18 23:30:00,35.9,24.9,29.92,WSW,252,12.0,24.0,64,0.00,,---,0.00,VWS V13.01,2013-01-19 04:30:00,